createdAt,value
2023-01-05T00:00:52.409Z,7.52
2023-01-05T00:05:45.619Z,7.47
2023-01-05T00:10:56.523Z,7.41
2023-01-05T00:16:23.385Z,7.47
2023-01-05T00:21:34.363Z,7.24
2023-01-05T00:26:27.315Z,7.53
2023-01-05T00:31:21.828Z,7.28
2023-01-05T00:36:15.071Z,7.28
2023-01-05T00:41:08.194Z,7.27
2023-01-05T00:46:01.429Z,7.43
2023-01-05T00:50:56.061Z,7.39
2023-01-05T00:55:57.531Z,7.39
2023-01-05T01:00:50.801Z,6.76
2023-01-05T01:05:43.962Z,7.33
2023-01-05T01:10:40.853Z,7.21
2023-01-05T01:15:34.000Z,6.95
2023-01-05T01:20:27.141Z,7.26
2023-01-05T01:25:20.207Z,7.25
2023-01-05T01:30:15.339Z,7.07
2023-01-05T01:35:09.058Z,7.27
2023-01-05T01:40:02.504Z,7.07
2023-01-05T01:44:59.604Z,7.12
2023-01-05T01:50:01.550Z,7.30
2023-01-05T01:54:55.766Z,7.30
2023-01-05T01:59:49.263Z,7.07
2023-01-05T02:04:45.509Z,7.33
2023-01-05T02:09:40.445Z,7.22
2023-01-05T02:14:41.820Z,7.37
2023-01-05T02:20:02.969Z,7.27
2023-01-05T02:25:29.379Z,7.49
2023-01-05T02:30:54.226Z,7.22
2023-01-05T02:35:58.470Z,6.78
2023-01-05T02:40:57.283Z,7.43
2023-01-05T02:45:51.414Z,7.51
2023-01-05T02:50:49.191Z,7.52
2023-01-05T02:55:47.881Z,7.25
2023-01-05T03:00:45.674Z,7.51
2023-01-05T03:05:42.985Z,7.46
2023-01-05T03:11:00.855Z,7.23
2023-01-05T03:16:02.202Z,7.03
2023-01-05T03:20:56.901Z,7.56
2023-01-05T03:26:09.760Z,7.35
2023-01-05T03:31:28.853Z,7.46
2023-01-05T03:36:25.775Z,7.57
2023-01-05T03:41:21.148Z,7.56
2023-01-05T03:46:21.163Z,7.39
2023-01-05T03:51:16.400Z,7.68
2023-01-05T03:56:09.971Z,7.60
2023-01-05T04:01:03.416Z,7.43
2023-01-05T04:05:58.521Z,7.63
2023-01-05T04:10:54.455Z,7.67
2023-01-05T04:15:47.929Z,7.69
2023-01-05T04:20:42.156Z,7.70
2023-01-05T04:25:36.770Z,7.35
2023-01-05T04:30:41.028Z,7.14
2023-01-05T04:35:34.648Z,7.75
2023-01-05T04:40:48.741Z,7.65
2023-01-05T04:45:43.523Z,7.58
2023-01-05T04:50:36.804Z,7.80
2023-01-05T04:55:32.945Z,7.69
2023-01-05T05:00:26.339Z,7.69
2023-01-05T05:05:22.462Z,7.83
2023-01-05T05:10:19.187Z,7.57
2023-01-05T05:15:14.401Z,7.61
2023-01-05T05:20:13.041Z,7.52
2023-01-05T05:25:09.088Z,7.40
2023-01-05T05:30:07.195Z,7.79
2023-01-05T05:35:00.343Z,7.78
2023-01-05T05:39:53.602Z,7.72
2023-01-05T05:44:48.276Z,7.81
2023-01-05T05:49:41.428Z,7.80
2023-01-05T05:54:34.544Z,7.80
2023-01-05T05:59:27.700Z,7.84
2023-01-05T06:04:22.169Z,7.79
2023-01-05T06:09:15.491Z,7.78
2023-01-05T06:14:08.670Z,7.89
2023-01-05T06:19:01.950Z,7.83
2023-01-05T06:23:56.658Z,7.58
2023-01-05T06:28:49.784Z,7.36
2023-01-05T06:33:42.903Z,7.59
2023-01-05T06:38:37.354Z,7.48
2023-01-05T06:43:32.202Z,7.54
2023-01-05T06:48:25.321Z,7.76
2023-01-05T06:53:18.680Z,7.60
2023-01-05T06:58:11.960Z,7.91
2023-01-05T07:03:07.572Z,7.77
2023-01-05T07:08:00.753Z,8.05
2023-01-05T07:12:53.873Z,8.14
2023-01-05T07:17:47.120Z,8.20
2023-01-05T07:22:41.727Z,8.28
2023-01-05T07:27:34.874Z,8.27
2023-01-05T07:32:27.989Z,8.45
2023-01-05T07:37:21.157Z,8.58
2023-01-05T07:42:15.698Z,7.15
2023-01-05T07:47:09.449Z,8.53
2023-01-05T07:52:02.725Z,9.10
2023-01-05T07:56:55.827Z,9.33
2023-01-05T08:01:50.705Z,9.34
2023-01-05T08:06:43.934Z,9.62
2023-01-05T08:11:37.142Z,9.90
2023-01-05T08:16:32.057Z,10.08
2023-01-05T08:21:26.823Z,10.33
2023-01-05T08:26:22.615Z,10.39
2023-01-05T08:31:18.305Z,10.52
2023-01-05T08:36:13.707Z,10.71
2023-01-05T08:41:08.332Z,11.03
2023-01-05T08:46:01.636Z,11.02
2023-01-05T08:50:54.986Z,11.37
2023-01-05T08:55:50.369Z,11.38
2023-01-05T09:00:45.023Z,11.56
2023-01-05T09:05:38.310Z,11.75
2023-01-05T09:10:31.686Z,11.51
2023-01-05T09:15:24.865Z,11.71
2023-01-05T09:20:22.642Z,12.04
2023-01-05T09:25:15.991Z,12.22
2023-01-05T09:30:10.568Z,12.22
2023-01-05T09:35:03.795Z,12.07
2023-01-05T09:39:58.295Z,12.26
2023-01-05T09:44:59.181Z,11.91
2023-01-05T09:49:53.509Z,11.71
2023-01-05T09:54:46.790Z,11.68
2023-01-05T09:59:44.937Z,11.75
2023-01-05T10:04:38.277Z,11.64
2023-01-05T10:09:34.718Z,11.58
2023-01-05T10:14:33.670Z,11.94
2023-01-05T10:19:30.253Z,12.04
2023-01-05T10:24:33.995Z,12.36
2023-01-05T10:29:34.151Z,12.19
2023-01-05T10:34:43.807Z,12.13
2023-01-05T10:40:12.842Z,12.82
2023-01-05T10:45:10.831Z,12.81
2023-01-05T10:50:39.071Z,13.08
2023-01-05T10:55:35.184Z,13.51
2023-01-05T11:00:42.067Z,13.66
2023-01-05T11:05:39.773Z,13.73
2023-01-05T11:10:35.677Z,14.17
2023-01-05T11:15:29.848Z,14.27
2023-01-05T11:20:23.077Z,14.23
2023-01-05T11:25:28.020Z,14.01
2023-01-05T11:30:24.752Z,13.74
2023-01-05T11:35:21.083Z,13.57
2023-01-05T11:40:18.638Z,13.58
2023-01-05T11:45:27.161Z,13.45
2023-01-05T11:50:25.203Z,13.45
2023-01-05T11:55:31.931Z,13.52
2023-01-05T12:00:28.995Z,13.33
2023-01-05T12:05:29.210Z,13.37
2023-01-05T12:10:47.789Z,13.32
2023-01-05T12:16:02.214Z,13.28
2023-01-05T12:20:58.458Z,13.25
2023-01-05T12:26:04.490Z,13.26
2023-01-05T12:36:33.960Z,13.12
2023-01-05T12:42:02.476Z,12.78
2023-01-05T12:47:13.762Z,13.42
2023-01-05T12:52:14.585Z,13.58
2023-01-05T12:57:15.162Z,13.59
2023-01-05T13:02:28.024Z,13.38
2023-01-05T13:07:26.657Z,13.53
2023-01-05T13:12:20.486Z,13.66
2023-01-05T13:17:26.519Z,13.70
2023-01-05T13:22:24.304Z,13.44
2023-01-05T13:27:18.499Z,12.72
2023-01-05T13:32:48.289Z,13.76
2023-01-05T13:38:03.678Z,13.58
2023-01-05T13:43:19.693Z,13.74
2023-01-05T13:48:44.451Z,13.67
2023-01-05T13:53:41.960Z,13.44
2023-01-05T13:58:39.991Z,13.43
2023-01-05T14:03:39.003Z,13.55
2023-01-05T14:08:35.215Z,13.37
2023-01-05T14:13:44.341Z,13.43
2023-01-05T14:18:54.271Z,13.02
2023-01-05T14:24:02.980Z,13.18
2023-01-05T14:28:56.372Z,12.89
2023-01-05T14:33:53.063Z,12.88
2023-01-05T14:38:49.787Z,12.95
2023-01-05T14:43:43.177Z,12.71
2023-01-05T14:48:39.950Z,12.72
2023-01-05T14:53:53.505Z,12.25
2023-01-05T15:04:23.271Z,12.94
2023-01-05T15:09:31.362Z,12.15
2023-01-05T15:14:52.467Z,12.40
2023-01-05T15:20:02.127Z,12.71
2023-01-05T15:25:18.219Z,12.70
2023-01-05T15:30:50.619Z,12.16
2023-01-05T15:35:51.729Z,12.71
2023-01-05T15:40:47.040Z,12.61
2023-01-05T15:45:44.531Z,12.34
2023-01-05T15:50:45.561Z,12.34
2023-01-05T15:55:46.831Z,12.11
2023-01-05T16:00:41.962Z,12.26
2023-01-05T16:05:36.029Z,11.09
2023-01-05T16:10:36.413Z,11.25
2023-01-05T16:15:32.461Z,11.91
2023-01-05T16:20:27.365Z,11.62
2023-01-05T16:25:23.146Z,11.70
2023-01-05T16:30:28.067Z,11.83
2023-01-05T16:35:25.869Z,11.55
2023-01-05T16:40:22.099Z,11.74
2023-01-05T16:45:26.422Z,12.09
2023-01-05T16:50:56.105Z,12.19
2023-01-05T16:55:53.479Z,10.98
2023-01-05T17:00:47.303Z,11.56
2023-01-05T17:05:40.861Z,11.25
2023-01-05T17:10:36.318Z,11.49
2023-01-05T17:15:32.973Z,11.79
2023-01-05T17:20:43.094Z,10.56
2023-01-05T17:25:41.783Z,10.16
2023-01-05T17:30:39.075Z,10.88
2023-01-05T17:35:32.768Z,10.76
2023-01-05T17:40:32.102Z,9.87
2023-01-05T17:45:34.928Z,9.65
2023-01-05T17:50:36.191Z,10.96
2023-01-05T17:55:30.912Z,10.58
2023-01-05T18:00:26.741Z,10.47
2023-01-05T18:05:23.637Z,11.30
2023-01-05T18:10:19.463Z,11.18
2023-01-05T18:15:16.682Z,10.13
2023-01-05T18:20:20.093Z,10.53
2023-01-05T18:25:21.671Z,10.23
2023-01-05T18:30:17.457Z,11.87
2023-01-05T18:35:12.131Z,11.67
2023-01-05T18:40:14.607Z,11.41
2023-01-05T18:45:32.023Z,11.01
2023-01-05T18:50:29.151Z,12.12
2023-01-05T18:55:23.935Z,10.91
2023-01-05T19:00:19.518Z,12.25
2023-01-05T19:05:15.692Z,12.28
2023-01-05T19:10:10.204Z,11.14
2023-01-05T19:15:03.767Z,12.14
2023-01-05T19:19:59.993Z,12.17
2023-01-05T19:24:53.220Z,11.35
2023-01-05T19:29:46.568Z,11.40
2023-01-05T19:34:42.429Z,12.43
2023-01-05T19:39:39.297Z,12.40
2023-01-05T19:44:33.865Z,12.28
2023-01-05T19:49:28.815Z,12.01
2023-01-05T19:54:24.131Z,11.43
2023-01-05T19:59:21.673Z,11.91
2023-01-05T20:04:15.110Z,11.38
2023-01-05T20:09:10.858Z,11.84
2023-01-05T20:14:05.501Z,11.45
2023-01-05T20:19:03.886Z,11.83
2023-01-05T20:23:57.297Z,11.66
2023-01-05T20:28:52.274Z,11.03
2023-01-05T20:33:50.948Z,11.58
2023-01-05T20:38:45.754Z,11.04
2023-01-05T20:43:44.794Z,11.44
2023-01-05T20:48:38.227Z,11.60
2023-01-05T20:53:33.668Z,10.33
2023-01-05T20:58:28.353Z,11.13
2023-01-05T21:03:26.901Z,11.25
2023-01-05T21:08:22.436Z,10.21
2023-01-05T21:13:31.774Z,11.45
2023-01-05T21:18:35.786Z,11.38
2023-01-05T21:23:32.560Z,10.23
2023-01-05T21:28:29.119Z,10.08
2023-01-05T21:33:22.663Z,10.51
2023-01-05T21:38:19.164Z,10.05
2023-01-05T21:43:17.669Z,10.06
2023-01-05T21:48:20.229Z,11.23
2023-01-05T21:53:34.796Z,10.52
2023-01-05T21:58:31.331Z,11.34
2023-01-05T22:03:24.633Z,11.35
2023-01-05T22:08:19.875Z,11.36
2023-01-05T22:13:17.247Z,10.64
2023-01-05T22:18:12.642Z,10.23
2023-01-05T22:23:10.010Z,10.44
2023-01-05T22:28:08.057Z,10.46
2023-01-05T22:33:01.557Z,11.15
2023-01-05T22:37:55.072Z,11.10
2023-01-05T22:42:48.593Z,11.02
2023-01-05T22:47:43.401Z,10.49
2023-01-05T22:52:37.942Z,10.92
2023-01-05T22:57:31.396Z,10.64
2023-01-05T23:02:24.702Z,10.82
2023-01-05T23:07:20.970Z,10.76
2023-01-05T23:12:14.588Z,10.71
2023-01-05T23:17:09.599Z,9.59
2023-01-05T23:22:02.871Z,9.88
2023-01-05T23:26:57.523Z,9.97
2023-01-05T23:31:53.186Z,9.50
2023-01-05T23:36:46.864Z,10.42
2023-01-05T23:41:40.040Z,9.65
2023-01-05T23:46:35.129Z,9.47
2023-01-05T23:51:28.436Z,8.94
2023-01-05T23:56:26.306Z,10.14
